Florien, Louisiana
Current Conditions -  °F | °C
As of 11:56 PM on Wednesday 28 Jan 2015 (Local Time) from KAQV Reporting Station
Clear Clear  
Wind Chill: 55°   Ceiling: Unl
Heat Index: 55°   Visibility: 10mi
Dew Point: 50°   Wind: 8mph
Humidity: 83%   Direction: 170°S
Pressure: 30.14"   Gusts: NA
Location:  31.44°N, 93.46°W
Report Text: KAQV 290556Z AUTO 17007KT 10SM CLR 13/10 A3014 RMK AO2 SLP205 T01280100 10194 20117 402440039 58002
Loading
Personal Weather Stations






























Interactive Weather Map New forecast layout! Learn more

10-Day Weather Forecast

Advertisements
Track Severe Weather on mobile